Clive, New Zealand
Current Conditions -  °F | °C
As of 11:30 PM on Friday 24 Oct 2014 (Local Time) from NZWN Reporting Station
Few Clouds Few Clouds  
Wind Chill: 50°   Ceiling: Unl
Heat Index: 50°   Visibility: 6mi
Dew Point: 36°   Wind: 28mph
Humidity: 58%   Direction: 190°S
Pressure: 30.18"   Gusts: NA
Location:  39.58°S, 176.91°E
Report Text: NZWN 241130Z AUTO 19024KT 9999 FEW038/// 10/02 Q1022 NOSIG
Loading
Personal Weather Stations






























Interactive Weather Map
Tropical Storm Tracking
New forecast layout! Learn more

10-Day Weather Forecast

Advertisements
Track Severe Weather on mobile